Time;durP1;ratioP1;P1;durP2;ratioP2;P2;SDS_P1;SDS_P2;PMS_P1;PMS_P2;Temp;Humidity;BMP_temperature;BMP_pressure;BME280_temperature;BME280_humidity;BME280_pressure;Samples;Min_cycle;Max_cycle;Signal;HPM_P1;HPM_P2
2022/10/31 00:00:27;;;;;;;23.55;14.30;;;;;;;12.29;74.81;98874.09;5062028;28;20111;-82
2022/10/31 00:02:53;;;;;;;25.98;13.60;;;;;;;12.27;74.91;98873.56;5064600;28;20020;-82
2022/10/31 00:05:18;;;;;;;23.55;13.95;;;;;;;12.26;74.76;98871.94;5071237;28;20025;-82
2022/10/31 00:07:44;;;;;;;24.48;14.10;;;;;;;12.25;75.06;98873.03;5059098;28;20394;-83
2022/10/31 00:10:09;;;;;;;28.95;14.05;;;;;;;12.27;75.17;98868.06;5057039;28;20023;-83
2022/10/31 00:12:34;;;;;;;26.20;14.65;;;;;;;12.27;74.64;98876.31;5059183;28;20475;-84
2022/10/31 00:15:00;;;;;;;23.05;12.98;;;;;;;12.27;74.97;98866.13;5060842;28;20035;-83
2022/10/31 00:17:25;;;;;;;20.90;11.30;;;;;;;12.28;75.03;98875.19;5044902;28;20409;-84
2022/10/31 00:19:51;;;;;;;20.35;12.38;;;;;;;12.28;74.83;98875.19;5066432;28;20029;-84
2022/10/31 00:22:16;;;;;;;17.25;11.10;;;;;;;12.28;74.65;98878.75;5069764;28;20020;-84
2022/10/31 00:24:41;;;;;;;17.77;11.68;;;;;;;12.28;74.96;98870.50;5066295;28;20130;-85
2022/10/31 00:27:07;;;;;;;19.42;11.95;;;;;;;12.28;75.01;98876.00;5059891;28;20066;-85
2022/10/31 00:29:32;;;;;;;18.38;11.05;;;;;;;12.24;74.61;98877.69;5062410;28;20063;-84
2022/10/31 00:31:57;;;;;;;19.05;10.98;;;;;;;12.19;74.78;98873.09;5063250;28;20029;-85
2022/10/31 00:34:23;;;;;;;22.50;11.52;;;;;;;12.18;74.46;98874.22;5066872;28;20024;-83
2022/10/31 00:36:48;;;;;;;23.83;12.38;;;;;;;12.18;74.54;98882.47;5067994;28;20111;-84
2022/10/31 00:39:13;;;;;;;20.60;12.27;;;;;;;12.13;74.80;98868.00;5066615;28;20044;-84
2022/10/31 00:41:39;;;;;;;22.95;12.55;;;;;;;12.12;74.90;98877.34;5072874;28;20074;-84
2022/10/31 00:44:04;;;;;;;23.00;12.55;;;;;;;12.07;75.08;98869.97;5060366;28;20112;-85
2022/10/31 00:46:30;;;;;;;22.25;12.85;;;;;;;12.04;74.61;98878.81;5060384;28;20339;-84
2022/10/31 00:48:55;;;;;;;23.73;12.48;;;;;;;12.00;74.93;98869.53;5030168;28;20082;-84
2022/10/31 00:51:21;;;;;;;21.00;12.25;;;;;;;11.95;75.07;98877.81;5066448;28;20078;-84
2022/10/31 00:53:46;;;;;;;22.85;13.40;;;;;;;11.91;74.84;98875.66;5067072;28;20459;-84
2022/10/31 00:56:13;;;;;;;21.15;13.38;;;;;;;11.89;75.23;98880.63;5064380;28;20029;-84
2022/10/31 00:58:38;;;;;;;27.02;13.95;;;;;;;11.89;75.10;98877.88;5050021;28;20417;-85
2022/10/31 01:01:04;;;;;;;24.70;14.52;;;;;;;11.88;74.75;98886.41;5066225;28;20075;-85
2022/10/31 01:03:31;;;;;;;27.70;15.77;;;;;;;11.86;74.93;98881.22;5045896;28;20502;-85
2022/10/31 01:06:00;;;;;;;26.83;16.48;;;;;;;11.84;75.05;98879.84;5065456;28;20028;-86
2022/10/31 01:08:25;;;;;;;28.25;15.68;;;;;;;11.83;75.04;98879.06;5068535;28;20024;-84
2022/10/31 01:11:05;;;;;;;25.85;14.75;;;;;;;11.83;75.14;98873.56;5047656;28;20031;-85
2022/10/31 01:13:31;;;;;;;24.75;14.68;;;;;;;11.83;75.08;98868.06;5066943;28;20725;-85
2022/10/31 01:15:59;;;;;;;27.75;17.25;;;;;;;11.79;75.21;98872.50;5067512;28;20020;-85
2022/10/31 01:18:24;;;;;;;27.33;16.60;;;;;;;11.78;74.97;98879.13;5067050;28;20116;-84
2022/10/31 01:21:06;;;;;;;27.88;16.20;;;;;;;11.74;75.52;98880.81;5049418;28;20099;-88
2022/10/31 01:23:32;;;;;;;33.97;18.85;;;;;;;11.72;74.94;98878.38;5049922;28;20035;-89
2022/10/31 01:26:01;;;;;;;29.05;15.95;;;;;;;11.71;75.13;98875.91;5062399;28;20458;-88
2022/10/31 01:28:27;;;;;;;27.88;16.42;;;;;;;11.68;75.28;98880.06;5064455;28;20033;-86
2022/10/31 01:30:52;;;;;;;27.45;14.50;;;;;;;11.71;75.81;98878.66;5070528;28;20548;-86
2022/10/31 01:33:17;;;;;;;24.50;14.70;;;;;;;11.71;75.07;98882.22;5070536;28;20044;-86
2022/10/31 01:35:43;;;;;;;29.85;16.30;;;;;;;11.68;75.72;98876.50;5062656;28;20047;-81
2022/10/31 01:38:08;;;;;;;30.90;17.25;;;;;;;11.68;75.22;98871.81;5044974;28;20028;-88
2022/10/31 01:40:34;;;;;;;28.55;16.98;;;;;;;11.69;75.53;98872.63;5059665;28;20043;-86
2022/10/31 01:42:59;;;;;;;30.52;16.05;;;;;;;11.67;75.60;98872.94;5046794;28;20052;-87
2022/10/31 01:45:24;;;;;;;27.88;15.00;;;;;;;11.65;75.01;98879.81;5065063;28;20116;-86
2022/10/31 01:47:50;;;;;;;25.00;14.65;;;;;;;11.63;75.62;98882.88;5063093;28;20067;-87
2022/10/31 01:50:30;;;;;;;25.92;13.02;;;;;;;11.62;75.53;98873.78;5070502;28;20028;-86
2022/10/31 01:52:57;;;;;;;21.40;12.88;;;;;;;11.62;75.40;98871.06;5068589;28;20025;-87
2022/10/31 01:55:34;;;;;;;23.65;13.35;;;;;;;11.59;75.13;98868.91;5056577;28;20025;-87
2022/10/31 01:58:06;;;;;;;25.58;13.65;;;;;;;11.58;75.07;98875.53;5062061;28;20032;-87
2022/10/31 02:00:31;;;;;;;20.98;12.90;;;;;;;11.58;75.71;98870.03;5062561;28;20102;-87
2022/10/31 02:02:59;;;;;;;20.58;13.07;;;;;;;11.58;75.43;98880.19;5058577;28;20021;-86
2022/10/31 02:05:27;;;;;;;22.63;13.40;;;;;;;11.52;75.44;98873.94;5061003;28;20024;-85
2022/10/31 02:08:01;;;;;;;26.42;14.07;;;;;;;11.47;75.59;98874.00;5065412;28;20020;-84
2022/10/31 02:10:27;;;;;;;21.80;13.25;;;;;;;11.43;75.90;98873.75;5073771;28;20040;-85
2022/10/31 02:12:54;;;;;;;22.42;12.90;;;;;;;11.38;75.78;98875.75;5053567;28;20040;-85
2022/10/31 02:15:20;;;;;;;22.20;13.20;;;;;;;11.31;75.96;98874.16;5035458;28;20044;-85
2022/10/31 02:17:46;;;;;;;20.10;11.95;;;;;;;11.28;76.12;98873.94;5061518;28;20115;-86
2022/10/31 02:20:11;;;;;;;22.40;13.65;;;;;;;11.26;76.01;98873.41;5050408;28;20032;-86
2022/10/31 02:22:55;;;;;;;21.25;12.13;;;;;;;11.23;75.81;98882.22;5063446;28;20483;-85
2022/10/31 02:25:21;;;;;;;20.80;12.48;;;;;;;11.21;76.23;98879.75;5064418;28;20542;-87
2022/10/31 02:27:59;;;;;;;22.17;12.15;;;;;;;11.18;75.72;98874.84;5066538;28;20119;-86
2022/10/31 02:30:39;;;;;;;18.37;10.97;;;;;;;11.17;76.25;98892.44;5053771;28;20036;-87
2022/10/31 02:33:17;;;;;;;19.35;11.50;;;;;;;11.14;76.67;98876.53;5058141;28;20049;-88
2022/10/31 02:36:17;;;;;;;19.27;10.63;;;;;;;11.12;76.48;98879.56;5059645;28;20029;-89
2022/10/31 02:39:00;;;;;;;20.23;10.20;;;;;;;11.15;76.47;98886.41;5059503;28;20498;-89
2022/10/31 02:41:28;;;;;;;17.63;10.85;;;;;;;11.17;76.33;98878.72;5049368;28;20055;-89
2022/10/31 02:44:00;;;;;;;17.67;11.05;;;;;;;11.15;76.71;98878.97;5048521;28;20017;-89
2022/10/31 02:46:44;;;;;;;19.88;11.55;;;;;;;11.13;76.42;98883.94;5065766;28;20108;-88
2022/10/31 02:49:53;;;;;;;18.35;11.10;;;;;;;11.10;76.23;98870.78;5060644;28;20042;-88
2022/10/31 02:52:25;;;;;;;17.17;10.68;;;;;;;11.13;76.76;98885.88;5017549;28;20071;-87
2022/10/31 02:54:51;;;;;;;20.27;11.82;;;;;;;11.12;76.43;98885.06;5064134;28;20225;-88
2022/10/31 02:57:30;;;;;;;21.67;12.95;;;;;;;11.09;76.91;98871.91;5056687;28;20033;-88
2022/10/31 03:00:00;;;;;;;18.27;11.80;;;;;;;11.07;76.58;98879.59;5060834;28;20024;-89
2022/10/31 03:02:45;;;;;;;18.40;10.95;;;;;;;11.08;76.85;98877.69;5063788;28;20024;-89
2022/10/31 03:05:43;;;;;;;19.42;11.13;;;;;;;11.08;77.08;98880.44;5061212;28;20539;-90
2022/10/31 03:08:11;;;;;;;19.05;11.27;;;;;;;11.10;76.95;98891.94;5063953;28;20020;-87
2022/10/31 03:10:41;;;;;;;20.55;11.27;;;;;;;11.11;76.28;98888.91;5065574;28;20154;-88
2022/10/31 03:13:15;;;;;;;;;;;;;;;11.14;76.54;98893.00;5064098;28;20031;-90
2022/10/31 03:15:44;;;;;;;18.05;9.85;;;;;;;11.15;76.51;98894.66;5063251;28;20271;-91
2022/10/31 03:18:18;;;;;;;18.27;10.93;;;;;;;11.13;76.37;98894.94;5077161;28;20153;-91
2022/10/31 03:20:55;;;;;;;23.95;14.68;;;;;;;11.12;76.47;98896.03;5076146;28;20394;-89
2022/10/31 03:23:24;;;;;;;21.65;11.20;;;;;;;11.14;76.16;98899.31;5048259;28;20408;-88
2022/10/31 03:25:52;;;;;;;16.70;10.77;;;;;;;11.11;76.37;98901.81;5054515;28;20052;-89
2022/10/31 03:28:24;;;;;;;20.63;11.27;;;;;;;11.06;77.00;98899.13;5070293;28;20039;-89
2022/10/31 03:30:52;;;;;;;15.30;9.95;;;;;;;11.05;77.13;98903.78;5066630;28;20118;-88
2022/10/31 03:33:20;;;;;;;19.50;10.40;;;;;;;11.02;76.34;98898.88;5069828;28;20555;-88
2022/10/31 03:35:51;;;;;;;17.33;10.55;;;;;;;11.01;77.02;98905.47;5067565;28;20028;-89
2022/10/31 03:38:19;;;;;;;17.63;10.95;;;;;;;10.98;76.89;98898.63;5076326;28;20375;-88
2022/10/31 03:40:48;;;;;;;16.38;10.40;;;;;;;10.95;76.77;98901.16;5051412;28;20414;-88
2022/10/31 03:43:19;;;;;;;17.95;11.48;;;;;;;10.95;77.14;98907.44;5068803;28;20066;-88
2022/10/31 03:45:47;;;;;;;20.00;10.95;;;;;;;10.94;77.48;98905.81;5075590;28;20538;-88
2022/10/31 03:48:19;;;;;;;16.73;10.95;;;;;;;10.94;76.81;98908.53;5077035;28;20032;-89
2022/10/31 03:51:06;;;;;;;18.30;11.23;;;;;;;10.93;76.62;98903.34;5071579;28;20103;-89
2022/10/31 03:53:41;;;;;;;18.23;11.95;;;;;;;10.90;77.10;98912.16;5066464;28;20040;-90
2022/10/31 03:56:18;;;;;;;18.23;12.05;;;;;;;10.87;77.27;98910.78;5082533;28;20056;-91
2022/10/31 03:58:53;;;;;;;18.70;11.15;;;;;;;10.84;77.22;98911.38;5071559;28;20386;-89
2022/10/31 04:01:20;;;;;;;20.65;11.30;;;;;;;10.82;77.55;98910.84;5065822;28;20025;-90
2022/10/31 04:03:46;;;;;;;20.15;12.77;;;;;;;10.80;77.66;98911.13;5052044;28;20099;-89
2022/10/31 04:06:15;;;;;;;23.48;14.73;;;;;;;10.77;77.12;98916.38;5069638;28;20024;-90
2022/10/31 04:08:55;;;;;;;17.45;11.88;;;;;;;10.77;77.26;98908.16;5081484;28;20124;-90
2022/10/31 04:11:25;;;;;;;20.58;11.52;;;;;;;10.77;77.09;98919.13;5069903;28;20497;-90
2022/10/31 04:13:53;;;;;;;21.52;12.73;;;;;;;10.78;77.70;98916.09;5069420;28;20025;-90
2022/10/31 04:16:21;;;;;;;19.85;12.02;;;;;;;10.79;77.91;98919.66;5089114;28;20035;-90
2022/10/31 04:18:46;;;;;;;22.10;12.82;;;;;;;10.77;77.32;98919.94;5068616;28;20088;-91
2022/10/31 04:21:12;;;;;;;20.00;12.63;;;;;;;10.76;77.42;98923.78;5072156;28;20020;-90
2022/10/31 04:23:37;;;;;;;20.13;12.13;;;;;;;10.77;77.04;98921.88;5074664;28;20090;-90
2022/10/31 04:26:03;;;;;;;21.23;12.23;;;;;;;10.78;77.54;98927.06;5070139;28;20119;-91
2022/10/31 04:28:28;;;;;;;23.30;13.40;;;;;;;10.80;77.21;98935.03;5085633;28;20028;-90
2022/10/31 04:30:54;;;;;;;26.77;12.93;;;;;;;10.81;77.11;98934.72;5065606;28;20034;-89
2022/10/31 04:33:19;;;;;;;22.15;12.65;;;;;;;10.81;76.99;98934.72;5048517;28;20049;-89
2022/10/31 04:35:45;;;;;;;20.77;13.20;;;;;;;10.82;76.91;98936.38;5049089;28;20056;-90
2022/10/31 04:38:11;;;;;;;20.15;12.60;;;;;;;10.81;77.25;98931.97;5051297;28;20072;-90
2022/10/31 04:40:36;;;;;;;19.25;11.63;;;;;;;10.81;77.63;98934.72;5043070;28;20029;-89
2022/10/31 04:43:01;;;;;;;24.80;13.13;;;;;;;10.81;77.58;98939.38;5058970;28;20022;-90
2022/10/31 04:45:27;;;;;;;21.42;12.93;;;;;;;10.79;77.15;98930.63;5052986;28;20031;-90
2022/10/31 04:47:52;;;;;;;25.08;13.15;;;;;;;10.77;76.78;98930.09;5063801;28;20098;-90
2022/10/31 04:50:18;;;;;;;19.85;12.10;;;;;;;10.75;77.05;98935.06;5043428;28;20041;-90
2022/10/31 04:52:45;;;;;;;23.58;13.27;;;;;;;10.72;76.73;98934.53;5052305;28;20073;-90
2022/10/31 04:55:11;;;;;;;21.10;13.38;;;;;;;10.70;76.96;98930.41;5062351;28;20031;-90
2022/10/31 04:57:48;;;;;;;24.02;12.70;;;;;;;10.68;76.81;98933.44;5070620;28;20021;-91
2022/10/31 05:00:16;;;;;;;23.52;13.00;;;;;;;10.70;77.01;98935.91;5044014;28;20027;-90
2022/10/31 05:02:55;;;;;;;23.63;13.77;;;;;;;10.70;76.96;98934.00;5051766;28;20380;-91
2022/10/31 05:05:26;;;;;;;25.23;13.82;;;;;;;10.68;77.17;98936.19;5031344;28;20052;-91
2022/10/31 05:07:52;;;;;;;27.55;13.07;;;;;;;10.66;76.81;98941.16;5049069;28;20403;-91
2022/10/31 05:10:20;;;;;;;22.35;13.55;;;;;;;10.63;76.95;98933.47;5050381;28;20380;-91
2022/10/31 05:12:48;;;;;;;24.60;14.63;;;;;;;10.62;76.76;98931.84;5067371;28;20025;-91
2022/10/31 05:15:13;;;;;;;23.40;14.23;;;;;;;10.62;77.23;98936.50;5053506;28;20037;-91
2022/10/31 05:17:39;;;;;;;25.70;15.02;;;;;;;10.60;77.08;98931.31;5061522;28;20036;-91
2022/10/31 05:20:05;;;;;;;23.90;14.30;;;;;;;10.57;77.10;98938.19;5065201;28;20025;-91
2022/10/31 05:22:30;;;;;;;28.00;14.90;;;;;;;10.53;77.00;98939.03;5056944;28;20059;-92
2022/10/31 05:24:55;;;;;;;26.48;15.07;;;;;;;10.49;77.29;98941.53;5056373;28;20553;-91
2022/10/31 05:27:21;;;;;;;25.17;14.50;;;;;;;10.46;77.09;98944.00;5061319;28;20105;-92
2022/10/31 05:29:46;;;;;;;27.38;15.07;;;;;;;10.42;77.25;98944.56;5056486;28;20040;-92
2022/10/31 05:32:12;;;;;;;26.75;14.43;;;;;;;10.39;77.37;98945.13;5058969;28;20064;-90
2022/10/31 05:34:37;;;;;;;26.77;14.68;;;;;;;10.37;77.41;98950.06;5071006;28;20030;-89
2022/10/31 05:37:02;;;;;;;24.00;14.38;;;;;;;10.33;76.55;98957.22;5082272;28;20374;-90
2022/10/31 05:39:28;;;;;;;22.20;13.38;;;;;;;10.28;77.59;98949.03;5079789;28;20044;-90
2022/10/31 05:41:53;;;;;;;25.13;14.38;;;;;;;10.25;76.96;98955.88;5075764;28;20036;-90
2022/10/31 05:44:18;;;;;;;23.17;13.30;;;;;;;10.22;77.86;98956.44;5073868;28;20085;-92
2022/10/31 05:46:46;;;;;;;24.52;14.15;;;;;;;10.25;77.51;98960.56;5077250;28;20457;-90
2022/10/31 05:49:11;;;;;;;23.00;13.40;;;;;;;10.25;77.38;98968.78;5072140;28;20131;-90
2022/10/31 05:51:37;;;;;;;22.00;12.57;;;;;;;10.26;77.46;98959.44;5071243;28;20111;-89
2022/10/31 05:54:02;;;;;;;19.23;12.32;;;;;;;10.28;77.81;98968.22;5075325;28;20048;-90
2022/10/31 05:56:28;;;;;;;21.83;12.25;;;;;;;10.32;77.46;98966.56;5074271;28;20036;-87
2022/10/31 05:58:53;;;;;;;22.40;12.52;;;;;;;10.34;77.97;98969.00;5075947;28;20024;-91
2022/10/31 06:01:18;;;;;;;21.42;12.23;;;;;;;10.35;77.29;98973.38;5089055;28;20031;-91
2022/10/31 06:03:44;;;;;;;22.80;13.02;;;;;;;10.36;77.99;98972.28;5071287;28;20032;-91
2022/10/31 06:06:09;;;;;;;25.27;13.98;;;;;;;10.36;77.35;98991.47;5091136;28;20466;-91
2022/10/31 06:08:35;;;;;;;24.92;15.07;;;;;;;10.35;78.00;98979.69;5069135;28;20363;-89
2022/10/31 06:11:00;;;;;;;26.67;15.13;;;;;;;10.38;77.66;98987.38;5077895;28;20155;-89
2022/10/31 06:13:26;;;;;;;24.75;14.73;;;;;;;10.43;77.91;98976.38;5055929;28;20016;-87
2022/10/31 06:15:51;;;;;;;25.73;15.25;;;;;;;10.47;77.97;98990.34;5080359;28;20112;-91
2022/10/31 06:18:16;;;;;;;25.92;14.90;;;;;;;10.49;78.72;98984.56;5090996;28;20016;-91
2022/10/31 06:20:42;;;;;;;24.58;14.07;;;;;;;10.47;78.06;98989.53;5090638;28;20651;-90
2022/10/31 06:23:07;;;;;;;26.92;13.65;;;;;;;10.47;78.47;98990.34;5086054;28;20028;-90
2022/10/31 06:25:33;;;;;;;21.58;13.38;;;;;;;10.49;78.32;98984.56;5064875;28;20027;-89
2022/10/31 06:27:58;;;;;;;25.17;13.90;;;;;;;10.52;78.23;98993.06;5055809;28;20524;-89
2022/10/31 06:30:24;;;;;;;22.67;13.52;;;;;;;10.55;78.25;98991.69;5064030;28;20113;-89
2022/10/31 06:32:49;;;;;;;22.58;13.82;;;;;;;10.58;78.87;98996.59;5064807;28;20486;-90
2022/10/31 06:35:15;;;;;;;23.88;13.55;;;;;;;10.57;78.76;98995.78;5065217;28;20024;-90
2022/10/31 06:37:40;;;;;;;22.67;13.43;;;;;;;10.60;78.59;98999.06;5068202;28;20074;-89
2022/10/31 06:40:06;;;;;;;21.95;13.35;;;;;;;10.61;78.56;98995.19;5072284;28;20466;-90
2022/10/31 06:42:31;;;;;;;24.40;14.05;;;;;;;10.63;78.72;98998.47;5056193;28;20043;-89
2022/10/31 06:44:57;;;;;;;23.00;13.73;;;;;;;10.66;78.25;98997.91;5038614;28;20056;-89
2022/10/31 06:47:22;;;;;;;28.55;16.45;;;;;;;10.68;78.82;99003.94;5043895;28;20036;-90
2022/10/31 06:49:48;;;;;;;28.58;15.55;;;;;;;10.71;78.93;99000.63;5061796;28;20075;-90
2022/10/31 06:52:13;;;;;;;23.08;13.70;;;;;;;10.75;78.70;98998.97;5072863;28;20074;-88
2022/10/31 06:54:38;;;;;;;28.08;15.80;;;;;;;10.76;79.05;99008.03;5069934;28;20047;-87
2022/10/31 06:57:04;;;;;;;27.88;16.23;;;;;;;10.78;78.86;99008.56;5067673;28;20032;-88
2022/10/31 06:59:29;;;;;;;31.52;18.58;;;;;;;10.81;79.09;99008.81;5070473;28;20403;-87
2022/10/31 07:01:55;;;;;;;35.55;21.95;;;;;;;10.81;79.28;99008.81;5077043;28;20036;-87
2022/10/31 07:04:20;;;;;;;33.47;18.98;;;;;;;10.80;78.44;99012.66;5072454;28;20020;-87
2022/10/31 07:06:46;;;;;;;29.17;17.58;;;;;;;10.82;78.77;99018.69;5065990;28;20033;-86
2022/10/31 07:09:11;;;;;;;29.67;17.42;;;;;;;10.84;78.96;99012.91;5071847;28;20024;-79
2022/10/31 07:11:36;;;;;;;29.63;16.35;;;;;;;10.89;78.63;99012.88;5071751;28;20035;-82
2022/10/31 07:14:02;;;;;;;32.97;17.42;;;;;;;10.93;79.22;99016.69;5084430;28;20562;-80
2022/10/31 07:16:27;;;;;;;27.20;16.38;;;;;;;11.00;78.59;99027.34;5072641;28;20421;-81
2022/10/31 07:18:53;;;;;;;30.55;15.93;;;;;;;11.05;79.08;99019.06;5073707;28;20081;-85
2022/10/31 07:21:18;;;;;;;26.58;16.15;;;;;;;11.13;79.33;99028.63;5071031;28;20481;-83
2022/10/31 07:23:46;;;;;;;30.52;16.90;;;;;;;11.17;79.15;99029.72;5076273;28;20410;-84
2022/10/31 07:26:12;;;;;;;29.33;17.17;;;;;;;11.22;78.83;99024.16;5054729;28;20058;-84
2022/10/31 07:28:37;;;;;;;32.55;18.38;;;;;;;11.26;78.87;99021.66;5042113;28;20111;-82
2022/10/31 07:31:03;;;;;;;29.95;17.27;;;;;;;11.29;78.79;99030.13;5093432;28;20024;-78
2022/10/31 07:33:28;;;;;;;31.85;16.95;;;;;;;11.34;79.17;99025.72;5084409;28;20402;-76
2022/10/31 07:35:53;;;;;;;36.90;19.55;;;;;;;11.39;78.85;99020.19;5050381;28;21083;-81
2022/10/31 07:38:19;;;;;;;39.40;21.58;;;;;;;11.45;78.96;99035.50;5077719;28;20059;-81
2022/10/31 07:40:50;;;;;;;38.75;19.98;;;;;;;11.49;78.96;99030.25;5069915;28;20549;-80
2022/10/31 07:43:16;;;;;;;37.70;18.67;;;;;;;11.56;79.16;99022.50;5064318;28;20039;-78
2022/10/31 07:45:41;;;;;;;30.02;18.20;;;;;;;11.64;79.66;99029.28;5068188;28;20493;-81
2022/10/31 07:48:07;;;;;;;35.17;18.17;;;;;;;11.70;79.27;99019.91;5073737;28;20067;-83
2022/10/31 07:50:34;;;;;;;31.58;17.60;;;;;;;11.71;79.50;99025.13;5079192;28;20020;-83
2022/10/31 07:52:59;;;;;;;37.78;18.88;;;;;;;11.76;79.16;99026.97;5077665;28;20024;-84
2022/10/31 07:55:24;;;;;;;34.75;20.05;;;;;;;11.81;79.54;99026.94;5047007;28;20465;-82
2022/10/31 07:58:03;;;;;;;37.22;19.23;;;;;;;11.88;79.36;99030.16;5069199;28;20059;-85
2022/10/31 08:00:30;;;;;;;38.70;20.17;;;;;;;11.97;79.54;99035.03;5049395;28;20071;-84
2022/10/31 08:03:04;;;;;;;33.30;18.65;;;;;;;12.01;79.59;99031.44;5077307;28;20124;-85
2022/10/31 08:05:31;;;;;;;34.95;18.90;;;;;;;12.09;79.37;99038.19;5079959;28;20423;-83
2022/10/31 08:07:57;;;;;;;39.03;20.33;;;;;;;12.14;79.17;99023.59;5065048;28;20025;-82
2022/10/31 08:10:23;;;;;;;35.30;18.08;;;;;;;12.21;79.57;99030.38;5069313;28;20099;-82
2022/10/31 08:13:18;;;;;;;35.78;17.27;;;;;;;12.27;79.48;99028.38;5067929;28;20040;-80
2022/10/31 08:15:44;;;;;;;33.83;17.45;;;;;;;12.35;79.32;99026.94;5045675;28;20045;-82
2022/10/31 08:18:13;;;;;;;33.38;16.92;;;;;;;12.42;79.37;99027.38;5061513;28;20082;-83
2022/10/31 08:20:39;;;;;;;35.92;17.42;;;;;;;12.50;79.64;99029.47;5050467;28;20043;-87
2022/10/31 08:23:05;;;;;;;30.52;16.67;;;;;;;12.58;79.28;99033.50;5068485;28;20036;-77
2022/10/31 08:25:32;;;;;;;32.85;17.08;;;;;;;12.65;79.21;99033.94;5082932;28;20030;-76
2022/10/31 08:27:58;;;;;;;28.55;15.88;;;;;;;12.73;79.38;99028.88;5085521;28;20029;-79
2022/10/31 08:30:26;;;;;;;34.33;16.83;;;;;;;12.80;79.20;99034.84;5068955;28;20031;-80
2022/10/31 08:33:11;;;;;;;32.92;16.90;;;;;;;12.87;79.28;99034.47;5066250;28;20602;-81
2022/10/31 08:35:37;;;;;;;35.28;16.80;;;;;;;12.95;79.32;99036.56;5069248;28;20033;-82
2022/10/31 08:38:03;;;;;;;32.88;16.55;;;;;;;13.00;79.26;99038.44;5088003;28;20398;-81
2022/10/31 08:40:30;;;;;;;35.75;16.80;;;;;;;13.05;79.04;99033.66;5090432;28;20043;-82
2022/10/31 08:43:01;;;;;;;32.15;16.55;;;;;;;13.10;78.90;99036.34;5090072;28;20406;-82
2022/10/31 08:45:28;;;;;;;32.55;16.27;;;;;;;13.19;78.92;99039.22;5084780;28;20497;-81
2022/10/31 08:47:57;;;;;;;28.95;16.05;;;;;;;13.25;78.56;99039.97;5088305;28;20026;-82
2022/10/31 08:50:23;;;;;;;28.30;15.40;;;;;;;13.32;78.87;99039.59;5074221;28;20024;-81
2022/10/31 08:52:48;;;;;;;30.00;14.73;;;;;;;13.37;78.64;99043.06;5072435;28;20024;-83
2022/10/31 08:55:13;;;;;;;31.70;14.70;;;;;;;13.44;78.64;99039.16;5080961;28;20028;-83
2022/10/31 08:57:39;;;;;;;27.63;14.77;;;;;;;13.50;78.60;99029.69;5076356;28;20032;-86
2022/10/31 09:00:05;;;;;;;27.63;14.63;;;;;;;13.56;78.28;99034.00;5064227;28;20032;-83
2022/10/31 09:02:30;;;;;;;31.20;16.27;;;;;;;13.64;78.28;99043.50;5085657;28;20062;-83
2022/10/31 09:04:56;;;;;;;28.13;14.52;;;;;;;13.70;78.45;99040.34;5069312;28;20029;-83
2022/10/31 09:07:21;;;;;;;29.00;14.80;;;;;;;13.76;77.97;99038.31;5069191;28;20031;-84
2022/10/31 09:09:46;;;;;;;29.55;14.43;;;;;;;13.84;77.97;99039.56;5082955;28;20059;-83
2022/10/31 09:12:12;;;;;;;31.20;14.48;;;;;;;13.92;77.75;99046.31;5078384;28;20027;-84
2022/10/31 09:14:37;;;;;;;29.77;14.50;;;;;;;14.01;77.68;99047.25;5072877;28;20107;-83
2022/10/31 09:17:02;;;;;;;31.80;14.57;;;;;;;14.09;77.80;99041.03;5070635;28;20028;-83
2022/10/31 09:19:28;;;;;;;29.48;15.07;;;;;;;14.19;77.50;99050.22;5085700;28;20478;-82
2022/10/31 09:21:54;;;;;;;27.88;14.18;;;;;;;14.26;77.66;99045.94;5081682;28;20098;-81
2022/10/31 09:24:19;;;;;;;31.00;14.95;;;;;;;14.33;77.16;99045.50;5065802;28;20127;-82
2022/10/31 09:26:44;;;;;;;27.30;14.73;;;;;;;14.41;77.28;99042.03;5045967;28;20453;-80
2022/10/31 09:29:10;;;;;;;25.35;14.30;;;;;;;14.51;77.57;99045.72;5057948;28;21044;-79
2022/10/31 09:31:35;;;;;;;25.65;14.13;;;;;;;14.59;77.10;99045.00;5063938;28;20087;-82
2022/10/31 09:34:01;;;;;;;28.10;13.90;;;;;;;14.66;76.75;99045.41;5034561;28;20045;-80
2022/10/31 09:36:26;;;;;;;27.02;13.25;;;;;;;14.75;76.54;99045.53;5044003;28;20706;-80
2022/10/31 09:38:52;;;;;;;27.15;13.27;;;;;;;14.82;76.36;99048.69;5047604;28;20033;-80
2022/10/31 09:41:48;;;;;;;24.88;13.00;;;;;;;14.89;76.44;99046.28;5047380;28;20063;-80
2022/10/31 09:44:38;;;;;;;25.40;13.65;;;;;;;15.01;76.32;99036.66;5038965;28;20383;-79
2022/10/31 09:47:15;;;;;;;22.35;12.52;;;;;;;15.09;76.46;99038.66;5046586;28;20025;-80
2022/10/31 09:49:41;;;;;;;29.90;13.90;;;;;;;15.18;76.25;99035.97;5037528;28;20707;-80
2022/10/31 09:52:32;;;;;;;22.67;12.55;;;;;;;15.26;76.46;99038.00;5032922;28;20085;-79
2022/10/31 09:55:21;;;;;;;27.27;13.52;;;;;;;15.35;75.92;99035.28;5042929;28;20081;-77
2022/10/31 09:57:47;;;;;;;24.63;13.02;;;;;;;15.46;76.16;99035.88;5054789;28;20040;-77
2022/10/31 10:00:22;;;;;;;27.05;13.90;;;;;;;15.56;75.74;99037.56;5028125;28;20037;-77
2022/10/31 10:03:01;;;;;;;24.52;12.68;;;;;;;15.66;75.73;99040.06;5052879;28;20032;-79
2022/10/31 10:05:49;;;;;;;23.00;12.30;;;;;;;15.73;75.39;99031.31;5033224;28;20124;-79
2022/10/31 10:08:23;;;;;;;27.80;13.65;;;;;;;15.83;75.01;99031.06;5029193;28;20531;-79
2022/10/31 10:11:14;;;;;;;24.75;12.43;;;;;;;15.90;75.20;99027.84;5044502;28;20040;-79
2022/10/31 10:14:00;;;;;;;24.25;12.35;;;;;;;16.00;74.87;99033.13;5046602;28;20032;-87
2022/10/31 10:16:33;;;;;;;22.13;12.55;;;;;;;16.08;74.57;99025.97;5047801;28;20499;-78
2022/10/31 10:19:36;;;;;;;22.20;12.57;;;;;;;16.16;74.90;99027.13;5040625;28;20037;-78
2022/10/31 10:22:01;;;;;;;24.13;11.52;;;;;;;16.27;73.72;99034.03;5050051;28;20033;-77
2022/10/31 10:24:32;;;;;;;25.33;12.65;;;;;;;16.35;74.20;99032.41;5052577;28;20028;-74
2022/10/31 10:27:35;;;;;;;24.25;11.80;;;;;;;16.46;74.36;99024.66;5043868;28;20036;-76
2022/10/31 10:30:02;;;;;;;20.40;11.55;;;;;;;16.57;74.17;99028.72;5044977;28;20029;-80
2022/10/31 10:32:34;;;;;;;22.20;11.63;;;;;;;16.64;74.12;99022.72;5048771;28;20044;-78
2022/10/31 10:35:16;;;;;;;22.40;11.30;;;;;;;16.74;74.17;99024.38;5067800;28;20029;-78
2022/10/31 10:37:44;;;;;;;22.48;10.80;;;;;;;16.83;73.36;99016.91;5068985;28;20407;-78
2022/10/31 10:40:24;;;;;;;18.93;10.50;;;;;;;16.91;73.37;99016.06;5072853;28;20482;-79
2022/10/31 10:43:19;;;;;;;18.35;10.60;;;;;;;16.99;73.40;99021.97;5067554;28;20343;-78
2022/10/31 10:48:59;;;;;;;20.90;11.40;;;;;;;17.19;72.81;99014.97;5071143;28;20101;-76
2022/10/31 10:51:40;;;;;;;15.38;7.55;;;;;;;17.26;72.28;99018.06;5071603;28;20020;-80
2022/10/31 10:54:36;;;;;;;17.42;9.60;;;;;;;17.32;72.19;99013.19;5071713;28;20086;-79
2022/10/31 10:57:31;;;;;;;17.45;9.35;;;;;;;17.42;71.80;99004.50;5072286;28;20524;-80
2022/10/31 11:00:01;;;;;;;19.55;9.77;;;;;;;17.50;71.40;99005.66;5054483;28;20123;-79
2022/10/31 11:02:30;;;;;;;16.65;9.00;;;;;;;17.53;70.86;98999.41;5054107;28;20043;-79
2022/10/31 11:04:57;;;;;;;;;;;;;;;17.58;70.71;98999.25;5072252;28;20040;-79
2022/10/31 11:07:23;;;;;;;18.73;7.10;;;;;;;17.61;70.27;99003.34;5071394;28;19912;-79
2022/10/31 11:09:49;;;;;;;16.52;7.40;;;;;;;17.65;70.09;99002.34;5072773;28;20035;-79
2022/10/31 11:12:24;;;;;;;14.13;7.40;;;;;;;17.71;69.97;99008.53;5072762;28;20486;-82
2022/10/31 11:14:59;;;;;;;13.70;7.18;;;;;;;17.78;70.00;99006.03;5072615;28;20027;-77
2022/10/31 11:17:32;;;;;;;12.73;6.50;;;;;;;17.84;69.69;98998.38;5072149;28;20579;-79
2022/10/31 11:20:01;;;;;;;11.77;6.93;;;;;;;17.91;69.07;99007.00;5054867;28;20021;-77
2022/10/31 11:22:26;;;;;;;12.38;7.07;;;;;;;17.97;68.59;98996.53;5070004;28;20012;-77
2022/10/31 11:24:52;;;;;;;15.60;6.70;;;;;;;18.04;68.14;98993.25;5072331;28;20040;-79
2022/10/31 11:27:22;;;;;;;15.30;6.28;;;;;;;18.09;68.21;99002.22;5071498;28;20020;-77
2022/10/31 11:29:49;;;;;;;12.27;5.30;;;;;;;18.18;67.96;98995.78;5072394;28;20498;-77
2022/10/31 11:32:24;;;;;;;11.15;6.13;;;;;;;18.22;67.40;98999.53;5054744;28;20059;-77